Ezaudi — FGD9763 — position and weather

sailwx.info

Track history (hours):
 
Tides and Currents Weather Stations Pressure Air Temp Water Temp Dewpoint Dewpoint Depression Visibility Wind Speed Wind Dir Waves Ship Positions

Ezaudi

Last reported at 2017-Aug-21 14:46 UTC. Time now 2017-Oct-18 20:30 UTC.
Position N 47°25' W 002°37'.
Warning: this ship's position is 58 days out of date.

Length 10 m.

Type: Pleasure craft. MMSI: 227611680.

Date/timePositionNaut miles runAvg speedWind from/ knotsBaromVisibWave heightAir tempDewpointWater temp
2017-Aug-21 14:46N 47°25' W 002°37'0 0.3
2017-Aug-21 14:30N 47°25' W 002°37'2 0.1
2017-Aug-20 09:14N 47°24' W 002°39'1 3.6
2017-Aug-20 08:56N 47°24' W 002°41'2 4.2
2017-Aug-20 08:25N 47°23' W 002°44'2 5.0
2017-Aug-20 08:00N 47°23' W 002°47'3 4.6
2017-Aug-20 07:22N 47°23' W 002°52'12 0.5
2017-Aug-19 04:50N 47°24' W 002°33'  
2017-Aug-16 15:01N 47°23' W 002°32'0 0.0
2017-Aug-16 14:54N 47°23' W 002°32'4 3.6
2017-Aug-16 13:46N 47°25' W 002°38'  
Track history (hours):
 
Tides and Currents Weather Stations Pressure Air Temp Water Temp Dewpoint Dewpoint Depression Visibility Wind Speed Wind Dir Waves Ship Positions

Ezaudi

Last reported at 2017-Aug-21 14:46 UTC. Time now 2017-Oct-18 20:30 UTC.
Position N 47°25' W 002°37'.
Warning: this ship's position is 58 days out of date.

Length 10 m.

Type: Pleasure craft. MMSI: 227611680.

Date/timePositionNaut miles runAvg speedWind from/ knotsBaromVisibWave heightAir tempDewpointWater temp
2017-Aug-21 14:46N 47°25' W 002°37'0 0.3
2017-Aug-21 14:30N 47°25' W 002°37'2 0.1
2017-Aug-20 09:14N 47°24' W 002°39'1 3.6
2017-Aug-20 08:56N 47°24' W 002°41'2 4.2
2017-Aug-20 08:25N 47°23' W 002°44'2 5.0
2017-Aug-20 08:00N 47°23' W 002°47'3 4.6
2017-Aug-20 07:22N 47°23' W 002°52'12 0.5
2017-Aug-19 04:50N 47°24' W 002°33'  
2017-Aug-16 15:01N 47°23' W 002°32'0 0.0
2017-Aug-16 14:54N 47°23' W 002°32'4 3.6
2017-Aug-16 13:46N 47°25' W 002°38'  

Dump ship's entire track history